createdAt,value
2023-04-26T00:02:43.816Z,5.78
2023-04-26T00:05:46.834Z,6.35
2023-04-26T00:08:49.436Z,6.45
2023-04-26T00:11:52.114Z,8.63
2023-04-26T00:14:54.841Z,6.10
2023-04-26T00:17:57.306Z,7.18
2023-04-26T00:20:59.826Z,8.10
2023-04-26T00:24:02.284Z,6.57
2023-04-26T00:27:10.278Z,5.53
2023-04-26T00:30:13.368Z,5.63
2023-04-26T00:33:15.952Z,6.70
2023-04-26T00:36:19.630Z,7.25
2023-04-26T00:39:22.583Z,7.47
2023-04-26T00:42:25.009Z,6.78
2023-04-26T00:45:27.513Z,5.88
2023-04-26T00:48:30.558Z,6.05
2023-04-26T00:51:32.950Z,6.65
2023-04-26T00:54:35.508Z,6.50
2023-04-26T00:57:38.056Z,6.80
2023-04-26T01:00:40.558Z,6.47
2023-04-26T01:03:44.730Z,7.82
2023-04-26T01:06:47.459Z,6.90
2023-04-26T01:09:50.700Z,6.40
2023-04-26T01:12:53.052Z,6.90
2023-04-26T01:15:55.846Z,6.57
2023-04-26T01:18:58.439Z,7.45
2023-04-26T01:22:01.103Z,7.70
2023-04-26T01:25:04.731Z,7.22
2023-04-26T01:28:08.777Z,6.78
2023-04-26T01:31:11.183Z,7.65
2023-04-26T01:34:13.894Z,7.45
2023-04-26T01:37:16.545Z,6.07
2023-04-26T01:40:19.155Z,6.40
2023-04-26T01:43:23.114Z,6.13
2023-04-26T01:46:25.968Z,6.93
2023-04-26T01:49:28.460Z,8.27
2023-04-26T01:52:30.824Z,6.05
2023-04-26T01:55:34.246Z,6.20
2023-04-26T01:58:36.650Z,5.97
2023-04-26T02:01:41.196Z,6.25
2023-04-26T02:04:46.176Z,6.38
2023-04-26T02:07:48.775Z,6.93
2023-04-26T02:10:51.142Z,7.03
2023-04-26T02:13:54.660Z,7.35
2023-04-26T02:16:57.236Z,6.95
2023-04-26T02:19:59.787Z,8.48
2023-04-26T02:23:02.171Z,6.55
2023-04-26T02:26:05.042Z,7.05
2023-04-26T02:29:07.591Z,6.38
2023-04-26T02:32:10.080Z,7.63
2023-04-26T02:35:12.540Z,5.32
2023-04-26T02:38:15.646Z,6.20
2023-04-26T02:47:23.640Z,5.45
2023-04-26T02:50:26.277Z,6.22
2023-04-26T02:53:28.921Z,5.57
2023-04-26T02:56:31.542Z,6.13
2023-04-26T02:59:34.049Z,7.07
2023-04-26T03:02:37.566Z,5.50
2023-04-26T03:05:40.468Z,6.38
2023-04-26T03:08:43.153Z,6.00
2023-04-26T03:11:46.467Z,6.53
2023-04-26T03:14:50.254Z,8.05
2023-04-26T03:17:53.448Z,5.78
2023-04-26T03:20:57.212Z,6.88
2023-04-26T03:24:00.072Z,6.63
2023-04-26T03:27:02.699Z,6.55
2023-04-26T03:30:05.971Z,5.68
2023-04-26T03:33:10.303Z,6.25
2023-04-26T03:36:12.991Z,7.85
2023-04-26T03:39:16.990Z,7.18
2023-04-26T03:42:22.785Z,6.88
2023-04-26T03:45:26.922Z,5.70
2023-04-26T03:48:29.335Z,7.35
2023-04-26T03:51:31.767Z,6.47
2023-04-26T03:54:37.296Z,5.72
2023-04-26T03:57:39.756Z,5.05
2023-04-26T04:00:45.031Z,6.28
2023-04-26T04:03:47.917Z,7.35
2023-04-26T04:06:51.346Z,7.60
2023-04-26T04:09:54.100Z,6.07
2023-04-26T04:12:56.751Z,6.38
2023-04-26T04:15:59.250Z,6.68
2023-04-26T04:19:01.888Z,6.82
2023-04-26T04:22:04.759Z,5.70
2023-04-26T04:25:10.575Z,5.55
2023-04-26T04:28:14.821Z,6.05
2023-04-26T04:31:17.750Z,6.78
2023-04-26T04:34:20.605Z,6.05
2023-04-26T04:37:25.909Z,5.80
2023-04-26T04:40:28.362Z,5.63
2023-04-26T04:43:32.014Z,8.38
2023-04-26T04:46:34.694Z,6.57
2023-04-26T04:49:37.634Z,6.18
2023-04-26T04:52:40.277Z,6.75
2023-04-26T04:55:42.726Z,9.45
2023-04-26T04:58:47.860Z,5.57
2023-04-26T05:01:51.752Z,5.78
2023-04-26T05:04:55.454Z,6.72
2023-04-26T05:07:57.994Z,5.75
2023-04-26T05:11:00.688Z,7.07
2023-04-26T05:14:03.373Z,6.90
2023-04-26T05:20:09.508Z,8.20
2023-04-26T05:23:12.162Z,10.23
2023-04-26T05:26:15.889Z,7.00
2023-04-26T05:29:31.499Z,5.90
2023-04-26T05:32:42.843Z,7.95
2023-04-26T05:36:11.738Z,5.15
2023-04-26T05:39:14.368Z,6.20
2023-04-26T05:42:17.994Z,8.23
2023-04-26T05:45:21.163Z,6.55
2023-04-26T05:48:25.624Z,6.45
2023-04-26T05:51:28.231Z,7.10
2023-04-26T05:54:30.790Z,7.30
2023-04-26T05:57:34.819Z,6.95
2023-04-26T06:00:37.673Z,6.53
2023-04-26T06:03:40.244Z,7.35
2023-04-26T06:06:43.089Z,8.27
2023-04-26T06:09:45.879Z,8.73
2023-04-26T06:12:48.500Z,7.22
2023-04-26T06:15:53.697Z,7.95
2023-04-26T06:18:57.023Z,5.28
2023-04-26T06:21:59.616Z,6.85
2023-04-26T06:25:02.568Z,9.45
2023-04-26T06:28:05.155Z,7.40
2023-04-26T06:31:07.878Z,8.25
2023-04-26T06:34:12.210Z,8.23
2023-04-26T06:37:14.964Z,5.38
2023-04-26T06:40:18.831Z,6.43
2023-04-26T06:43:21.495Z,6.03
2023-04-26T06:46:33.365Z,4.93
2023-04-26T06:49:37.999Z,7.53
2023-04-26T06:52:42.784Z,5.63
2023-04-26T06:55:46.192Z,6.20
2023-04-26T06:59:05.521Z,5.55
2023-04-26T07:02:08.251Z,7.00
2023-04-26T07:05:11.017Z,7.15
2023-04-26T07:08:13.467Z,5.13
2023-04-26T07:11:16.395Z,7.22
2023-04-26T07:14:19.160Z,5.45
2023-04-26T07:17:22.315Z,6.18
2023-04-26T07:26:29.913Z,6.25
2023-04-26T07:29:32.301Z,9.07
2023-04-26T07:32:35.248Z,7.38
2023-04-26T07:35:37.806Z,7.32
2023-04-26T07:38:40.303Z,7.85
2023-04-26T07:41:44.095Z,5.60
2023-04-26T07:44:48.494Z,6.85
2023-04-26T07:47:50.956Z,5.10
2023-04-26T07:50:53.427Z,6.63
2023-04-26T07:53:56.062Z,6.10
2023-04-26T07:56:58.523Z,5.20
2023-04-26T08:00:01.257Z,10.88
2023-04-26T08:03:04.029Z,5.80
2023-04-26T08:06:08.882Z,6.35
2023-04-26T08:09:11.570Z,5.38
2023-04-26T08:12:14.147Z,6.47
2023-04-26T08:15:16.812Z,6.35
2023-04-26T08:18:19.488Z,5.93
2023-04-26T08:21:22.032Z,6.20
2023-04-26T08:24:24.464Z,5.07
2023-04-26T08:27:28.378Z,6.63
2023-04-26T08:30:30.914Z,5.00
2023-04-26T08:33:33.446Z,7.40
2023-04-26T08:36:39.653Z,7.97
2023-04-26T08:39:42.169Z,8.20
2023-04-26T08:42:44.857Z,3.97
2023-04-26T08:45:47.561Z,5.80
2023-04-26T08:48:55.280Z,6.70
2023-04-26T08:51:57.974Z,7.88
2023-04-26T08:55:00.967Z,5.10
2023-04-26T08:58:03.492Z,6.72
2023-04-26T09:01:06.004Z,6.28
2023-04-26T09:04:08.656Z,9.23
2023-04-26T09:07:11.351Z,8.55
2023-04-26T09:10:14.741Z,8.25
2023-04-26T09:13:17.398Z,6.00
2023-04-26T09:16:20.205Z,5.00
2023-04-26T09:19:52.127Z,6.57
2023-04-26T09:23:06.049Z,6.97
2023-04-26T09:26:19.075Z,5.35
2023-04-26T09:29:21.834Z,6.82
2023-04-26T09:32:24.997Z,4.63
2023-04-26T09:35:29.667Z,4.95
2023-04-26T09:38:32.241Z,6.22
2023-04-26T09:41:47.002Z,4.97
2023-04-26T09:44:49.388Z,4.53
2023-04-26T09:47:51.976Z,6.13
2023-04-26T09:50:59.063Z,6.25
2023-04-26T09:54:01.520Z,6.68
2023-04-26T09:57:04.146Z,5.13
2023-04-26T10:00:10.360Z,5.13
2023-04-26T10:03:12.977Z,4.50
2023-04-26T10:06:16.155Z,5.25
2023-04-26T10:09:18.757Z,5.85
2023-04-26T10:12:21.621Z,4.95
2023-04-26T10:15:24.392Z,5.28
2023-04-26T10:18:27.034Z,3.50
2023-04-26T10:21:32.041Z,4.55
2023-04-26T10:24:37.691Z,4.28
2023-04-26T10:27:46.922Z,4.55
2023-04-26T10:34:22.909Z,4.80
2023-04-26T10:37:25.403Z,6.93
2023-04-26T10:40:34.514Z,5.60
2023-04-26T10:43:42.857Z,4.88
2023-04-26T10:46:49.416Z,4.50
2023-04-26T10:49:51.978Z,4.03
2023-04-26T10:53:02.621Z,6.35
2023-04-26T10:56:05.184Z,7.40
2023-04-26T11:02:58.729Z,4.18
2023-04-26T11:06:01.720Z,9.45
2023-04-26T11:09:04.394Z,4.22
2023-04-26T11:12:13.900Z,4.88
2023-04-26T11:15:16.494Z,10.73
2023-04-26T11:18:20.124Z,3.58
2023-04-26T11:21:22.716Z,4.70
2023-04-26T11:27:28.411Z,4.00
2023-04-26T11:30:31.998Z,5.68
2023-04-26T11:33:34.562Z,5.53
2023-04-26T11:36:38.565Z,8.38
2023-04-26T11:39:41.005Z,5.35
2023-04-26T11:42:46.455Z,4.00
2023-04-26T11:45:49.219Z,4.55
2023-04-26T11:48:51.903Z,6.85
2023-04-26T11:55:04.848Z,5.50
2023-04-26T11:58:14.218Z,4.35
2023-04-26T12:01:26.701Z,4.55
2023-04-26T12:04:30.711Z,5.18
2023-04-26T12:07:37.706Z,4.70
2023-04-26T12:10:40.307Z,4.22
2023-04-26T12:13:42.935Z,3.42
2023-04-26T12:16:46.490Z,4.05
2023-04-26T12:19:49.857Z,4.18
2023-04-26T12:23:07.988Z,5.13
2023-04-26T12:26:12.275Z,5.93
2023-04-26T12:29:14.727Z,5.25
2023-04-26T12:32:17.279Z,3.70
2023-04-26T12:35:19.723Z,4.10
2023-04-26T12:38:22.238Z,3.63
2023-04-26T12:41:24.867Z,4.70
2023-04-26T12:44:27.356Z,4.00
2023-04-26T12:47:31.552Z,3.72
2023-04-26T12:50:34.148Z,3.53
2023-04-26T12:53:36.828Z,4.20
2023-04-26T12:56:43.873Z,3.28
2023-04-26T12:59:46.651Z,2.90
2023-04-26T13:02:49.276Z,3.92
2023-04-26T13:05:52.466Z,4.40
2023-04-26T13:08:54.896Z,3.55
2023-04-26T13:11:57.794Z,3.20
2023-04-26T13:15:01.891Z,4.47
2023-04-26T13:18:04.584Z,4.25
2023-04-26T13:21:07.165Z,2.70
2023-04-26T13:24:09.514Z,4.00
2023-04-26T13:27:12.040Z,4.65
2023-04-26T13:30:14.653Z,3.33
2023-04-26T13:33:17.312Z,3.58
2023-04-26T13:37:04.502Z,3.72
2023-04-26T13:40:25.442Z,3.75
2023-04-26T13:43:27.865Z,3.30
2023-04-26T13:46:30.746Z,4.93
2023-04-26T13:49:33.284Z,4.32
2023-04-26T13:52:37.838Z,3.70
2023-04-26T13:55:41.338Z,2.80
2023-04-26T13:58:47.535Z,4.07
2023-04-26T14:01:54.211Z,5.40
2023-04-26T14:04:58.110Z,4.10
2023-04-26T14:11:07.704Z,4.72
2023-04-26T14:14:10.243Z,3.38
2023-04-26T14:17:12.898Z,3.25
2023-04-26T14:20:15.741Z,4.32
2023-04-26T14:23:18.871Z,3.60
2023-04-26T14:26:21.831Z,3.28
2023-04-26T14:29:24.501Z,3.88
2023-04-26T14:32:27.065Z,4.53
2023-04-26T14:35:29.712Z,4.90
2023-04-26T14:38:32.485Z,2.70
2023-04-26T14:41:35.396Z,3.75
2023-04-26T14:47:40.759Z,3.75
2023-04-26T14:50:44.460Z,3.10
2023-04-26T14:53:47.208Z,2.90
2023-04-26T14:56:49.738Z,3.40
2023-04-26T14:59:52.166Z,5.00
2023-04-26T15:02:54.843Z,4.70
2023-04-26T15:05:57.625Z,6.40
2023-04-26T15:09:00.384Z,3.25
2023-04-26T15:12:04.866Z,4.28
2023-04-26T15:15:07.961Z,3.85
2023-04-26T15:21:17.434Z,4.03
2023-04-26T15:24:20.575Z,5.05
2023-04-26T15:30:27.568Z,4.75
2023-04-26T15:33:30.722Z,3.72
2023-04-26T15:36:33.238Z,2.80
2023-04-26T15:39:35.896Z,5.03
2023-04-26T15:42:38.585Z,3.50
2023-04-26T15:45:41.008Z,4.93
2023-04-26T15:48:44.483Z,3.72
2023-04-26T15:51:47.846Z,3.70
2023-04-26T15:54:50.452Z,3.28
2023-04-26T15:57:52.904Z,3.30
2023-04-26T16:00:55.658Z,4.30
2023-04-26T16:03:58.623Z,4.07
2023-04-26T16:07:01.553Z,3.08
2023-04-26T16:10:05.150Z,3.90
2023-04-26T16:13:07.920Z,3.13
2023-04-26T16:16:11.726Z,3.58
2023-04-26T16:19:14.413Z,2.95
2023-04-26T16:22:20.379Z,3.63
2023-04-26T16:25:23.046Z,3.25
2023-04-26T16:28:25.663Z,4.60
2023-04-26T16:31:28.286Z,5.82
2023-04-26T16:34:30.852Z,2.58
2023-04-26T16:37:33.442Z,4.38
2023-04-26T16:40:36.001Z,5.38
2023-04-26T16:43:38.867Z,4.03
2023-04-26T16:46:41.423Z,4.45
2023-04-26T16:49:44.205Z,3.20
2023-04-26T16:52:47.034Z,4.13
2023-04-26T16:55:50.452Z,3.22
2023-04-26T16:58:53.454Z,4.53
2023-04-26T17:01:56.598Z,6.63
2023-04-26T17:04:59.875Z,3.05
2023-04-26T17:11:05.524Z,3.28
2023-04-26T17:14:07.992Z,5.05
2023-04-26T17:17:10.457Z,6.20
2023-04-26T17:20:13.721Z,2.75
2023-04-26T17:23:17.378Z,5.30
2023-04-26T17:26:19.899Z,3.67
2023-04-26T17:29:22.728Z,4.95
2023-04-26T17:32:25.227Z,3.08
2023-04-26T17:35:27.778Z,4.18
2023-04-26T17:39:04.492Z,4.18
2023-04-26T17:42:06.849Z,4.75
2023-04-26T17:45:12.076Z,2.90
2023-04-26T17:48:17.148Z,5.38
2023-04-26T17:51:19.725Z,4.90
2023-04-26T17:54:24.013Z,4.07
2023-04-26T17:57:30.149Z,5.70
2023-04-26T18:00:33.070Z,3.83
2023-04-26T18:03:36.095Z,2.85
2023-04-26T18:06:40.002Z,3.67
2023-04-26T18:09:42.649Z,3.15
2023-04-26T18:12:45.146Z,4.07
2023-04-26T18:15:47.988Z,4.50
2023-04-26T18:18:50.540Z,3.95
2023-04-26T18:21:54.047Z,3.33
2023-04-26T18:24:56.815Z,3.35
2023-04-26T18:27:59.239Z,5.47
2023-04-26T18:31:01.894Z,4.47
2023-04-26T18:34:04.415Z,5.05
2023-04-26T18:37:07.116Z,3.55
2023-04-26T18:40:10.355Z,3.78
2023-04-26T18:43:12.871Z,4.07
2023-04-26T18:46:15.505Z,4.10
2023-04-26T18:49:17.941Z,5.20
2023-04-26T18:52:20.395Z,3.63
2023-04-26T18:55:23.080Z,4.68
2023-04-26T18:58:25.674Z,3.28
2023-04-26T19:01:28.347Z,3.78
2023-04-26T19:04:31.065Z,3.67
2023-04-26T19:07:33.688Z,3.50
2023-04-26T19:10:36.300Z,4.90
2023-04-26T19:13:42.917Z,4.40
2023-04-26T19:16:45.381Z,5.53
2023-04-26T19:19:47.860Z,4.95
2023-04-26T19:22:50.468Z,4.82
2023-04-26T19:25:53.267Z,4.05
2023-04-26T19:28:56.010Z,4.57
2023-04-26T19:32:00.194Z,4.20
2023-04-26T19:35:06.124Z,4.22
2023-04-26T19:38:10.127Z,3.00
2023-04-26T19:41:13.264Z,3.88
2023-04-26T19:44:15.977Z,4.25
2023-04-26T19:47:18.767Z,5.13
2023-04-26T19:50:21.238Z,4.82
2023-04-26T19:53:23.755Z,4.07
2023-04-26T19:56:26.398Z,6.07
2023-04-26T19:59:28.872Z,6.28
2023-04-26T20:02:31.762Z,4.45
2023-04-26T20:05:34.783Z,5.38
2023-04-26T20:08:37.736Z,6.13
2023-04-26T20:11:40.358Z,5.35
2023-04-26T20:14:43.430Z,3.63
2023-04-26T20:17:46.085Z,3.88
2023-04-26T20:20:49.346Z,3.55
2023-04-26T20:23:52.477Z,3.55
2023-04-26T20:26:56.640Z,3.58
2023-04-26T20:29:59.173Z,5.38
2023-04-26T20:33:02.134Z,4.95
2023-04-26T20:36:05.318Z,6.38
2023-04-26T20:39:09.974Z,5.85
2023-04-26T20:42:12.773Z,4.50
2023-04-26T20:45:16.690Z,5.28
2023-04-26T20:48:19.283Z,4.85
2023-04-26T20:51:21.797Z,5.50
2023-04-26T20:54:25.315Z,5.82
2023-04-26T20:57:28.201Z,8.18
2023-04-26T21:00:30.704Z,9.48
2023-04-26T21:03:34.584Z,11.02
2023-04-26T21:06:37.719Z,11.02
2023-04-26T21:09:40.415Z,10.32
2023-04-26T21:12:42.922Z,12.30
2023-04-26T21:15:45.994Z,7.70
2023-04-26T21:18:48.929Z,11.65
2023-04-26T21:21:51.476Z,10.13
2023-04-26T21:24:54.039Z,6.18
2023-04-26T21:27:58.254Z,6.38
2023-04-26T21:31:04.902Z,5.15
2023-04-26T21:34:07.516Z,5.20
2023-04-26T21:37:10.657Z,8.35
2023-04-26T21:40:13.529Z,5.75
2023-04-26T21:43:17.642Z,6.03
2023-04-26T21:46:20.235Z,4.50
2023-04-26T21:49:22.807Z,5.25
2023-04-26T21:52:25.443Z,5.13
2023-04-26T21:55:27.798Z,4.97
2023-04-26T21:58:30.362Z,4.90
2023-04-26T22:01:32.980Z,5.07
2023-04-26T22:04:36.100Z,6.57
2023-04-26T22:07:38.491Z,5.93
2023-04-26T22:10:40.912Z,4.40
2023-04-26T22:13:43.366Z,6.85
2023-04-26T22:16:46.057Z,4.78
2023-04-26T22:19:48.841Z,4.93
2023-04-26T22:22:51.251Z,4.85
2023-04-26T22:25:53.929Z,5.25
2023-04-26T22:28:56.359Z,5.68
2023-04-26T22:31:59.160Z,5.28
2023-04-26T22:35:01.641Z,4.68
2023-04-26T22:38:04.093Z,6.15
2023-04-26T22:41:07.396Z,4.80
2023-04-26T22:47:12.200Z,7.03
2023-04-26T22:50:14.997Z,5.28
2023-04-26T22:53:17.420Z,5.20
2023-04-26T22:56:19.899Z,5.18
2023-04-26T22:59:22.346Z,6.20
2023-04-26T23:02:25.068Z,5.65
2023-04-26T23:05:27.912Z,6.82
2023-04-26T23:08:30.361Z,6.93
2023-04-26T23:11:33.414Z,5.93
2023-04-26T23:14:36.079Z,4.68
2023-04-26T23:17:38.950Z,5.75
2023-04-26T23:20:41.533Z,4.97
2023-04-26T23:23:44.234Z,4.70
2023-04-26T23:26:46.887Z,5.72
2023-04-26T23:29:50.051Z,6.88
2023-04-26T23:32:52.705Z,5.57
2023-04-26T23:35:55.379Z,4.90
2023-04-26T23:38:58.140Z,4.60
2023-04-26T23:42:00.816Z,5.13
2023-04-26T23:45:04.442Z,6.40
2023-04-26T23:48:08.466Z,5.30
2023-04-26T23:51:11.019Z,4.95
2023-04-26T23:54:13.611Z,4.55
2023-04-26T23:57:16.531Z,6.13
